Terminal Aerodrome Forecast
Issued by NWS

Home | Current Version | Previous Version | Text Only | Print | Product List | Glossary On
Versions: 1 2 3 4 5 6 7 8 9 10 11 12 13 14 15 16 17 18 19 20 21 22 23 24 25 26 27 28
629
FTUS46 KMTR 221723
TAFSFO
TAF
KSFO 221723Z 2218/2324 29012KT P6SM FEW020 SCT200
     FM222100 29015G25KT P6SM FEW025 FEW035 SCT200
     FM230300 28021G27KT P6SM FEW040 SCT200
     FM230700 28019G26KT P6SM FEW030 FEW200
     FM231000 27015G23KT P6SM FEW200
     FM231500 30009KT P6SM SKC
     FM232100 30014G21KT P6SM SKC=

USA.gov is the U.S. government's official web portal to all federal, state and local government web resources and services.